sensor_id;sensor_type;location;lat;lon;timestamp;P1;durP1;ratioP1;P2;durP2;ratioP2
9884;SDS011;4981;50.966;4.842;2023-12-14T00:02:00;45.53;;;26.10;;
9884;SDS011;4981;50.966;4.842;2023-12-14T00:04:26;46.87;;;25.37;;
9884;SDS011;4981;50.966;4.842;2023-12-14T00:06:53;49.07;;;25.50;;
9884;SDS011;4981;50.966;4.842;2023-12-14T00:09:21;46.43;;;25.77;;
9884;SDS011;4981;50.966;4.842;2023-12-14T00:11:49;48.83;;;26.43;;
9884;SDS011;4981;50.966;4.842;2023-12-14T00:14:16;45.87;;;25.63;;
9884;SDS011;4981;50.966;4.842;2023-12-14T00:16:44;49.67;;;26.67;;
9884;SDS011;4981;50.966;4.842;2023-12-14T00:19:11;47.53;;;26.90;;
9884;SDS011;4981;50.966;4.842;2023-12-14T00:21:37;50.80;;;28.37;;
9884;SDS011;4981;50.966;4.842;2023-12-14T00:24:04;46.80;;;27.33;;
9884;SDS011;4981;50.966;4.842;2023-12-14T00:26:32;46.33;;;25.97;;
9884;SDS011;4981;50.966;4.842;2023-12-14T00:29:00;52.97;;;28.17;;
9884;SDS011;4981;50.966;4.842;2023-12-14T00:31:28;48.23;;;26.90;;
9884;SDS011;4981;50.966;4.842;2023-12-14T00:33:55;57.20;;;27.77;;
9884;SDS011;4981;50.966;4.842;2023-12-14T00:36:22;52.67;;;27.93;;
9884;SDS011;4981;50.966;4.842;2023-12-14T00:38:49;54.60;;;29.67;;
9884;SDS011;4981;50.966;4.842;2023-12-14T00:41:17;52.80;;;28.47;;
9884;SDS011;4981;50.966;4.842;2023-12-14T00:43:44;51.30;;;29.17;;
9884;SDS011;4981;50.966;4.842;2023-12-14T00:46:12;48.57;;;28.80;;
9884;SDS011;4981;50.966;4.842;2023-12-14T00:48:40;52.30;;;27.47;;
9884;SDS011;4981;50.966;4.842;2023-12-14T00:51:07;53.73;;;28.47;;
9884;SDS011;4981;50.966;4.842;2023-12-14T00:53:34;54.70;;;28.47;;
9884;SDS011;4981;50.966;4.842;2023-12-14T00:56:02;49.83;;;27.60;;
9884;SDS011;4981;50.966;4.842;2023-12-14T00:58:29;50.43;;;28.17;;
9884;SDS011;4981;50.966;4.842;2023-12-14T01:00:56;47.73;;;28.03;;
9884;SDS011;4981;50.966;4.842;2023-12-14T01:03:25;54.10;;;28.23;;
9884;SDS011;4981;50.966;4.842;2023-12-14T01:05:52;50.97;;;27.80;;
9884;SDS011;4981;50.966;4.842;2023-12-14T01:08:19;55.23;;;28.37;;
9884;SDS011;4981;50.966;4.842;2023-12-14T01:10:47;50.77;;;28.23;;
9884;SDS011;4981;50.966;4.842;2023-12-14T01:13:14;58.87;;;29.17;;
9884;SDS011;4981;50.966;4.842;2023-12-14T01:15:41;62.03;;;29.30;;
9884;SDS011;4981;50.966;4.842;2023-12-14T01:18:08;57.47;;;29.37;;
9884;SDS011;4981;50.966;4.842;2023-12-14T01:20:37;66.90;;;30.60;;
9884;SDS011;4981;50.966;4.842;2023-12-14T01:23:04;57.20;;;30.37;;
9884;SDS011;4981;50.966;4.842;2023-12-14T01:25:34;61.47;;;29.73;;
9884;SDS011;4981;50.966;4.842;2023-12-14T01:28:01;58.47;;;30.53;;
9884;SDS011;4981;50.966;4.842;2023-12-14T01:30:29;58.17;;;28.60;;
9884;SDS011;4981;50.966;4.842;2023-12-14T01:32:56;55.17;;;29.57;;
9884;SDS011;4981;50.966;4.842;2023-12-14T01:35:23;51.60;;;26.57;;
9884;SDS011;4981;50.966;4.842;2023-12-14T01:37:52;43.70;;;24.23;;
9884;SDS011;4981;50.966;4.842;2023-12-14T01:40:19;44.73;;;23.13;;
9884;SDS011;4981;50.966;4.842;2023-12-14T01:42:47;44.03;;;24.23;;
9884;SDS011;4981;50.966;4.842;2023-12-14T01:45:14;41.43;;;22.57;;
9884;SDS011;4981;50.966;4.842;2023-12-14T01:47:41;41.60;;;22.60;;
9884;SDS011;4981;50.966;4.842;2023-12-14T01:50:09;46.40;;;23.73;;
9884;SDS011;4981;50.966;4.842;2023-12-14T01:52:36;47.60;;;23.67;;
9884;SDS011;4981;50.966;4.842;2023-12-14T01:55:05;45.87;;;21.37;;
9884;SDS011;4981;50.966;4.842;2023-12-14T01:57:32;41.57;;;21.10;;
9884;SDS011;4981;50.966;4.842;2023-12-14T02:00:00;44.70;;;22.40;;
9884;SDS011;4981;50.966;4.842;2023-12-14T02:02:27;41.47;;;20.77;;
9884;SDS011;4981;50.966;4.842;2023-12-14T02:04:54;33.67;;;19.13;;
9884;SDS011;4981;50.966;4.842;2023-12-14T02:07:21;41.87;;;19.50;;
9884;SDS011;4981;50.966;4.842;2023-12-14T02:09:48;36.60;;;18.60;;
9884;SDS011;4981;50.966;4.842;2023-12-14T02:12:18;36.13;;;20.03;;
9884;SDS011;4981;50.966;4.842;2023-12-14T02:14:45;31.23;;;17.70;;
9884;SDS011;4981;50.966;4.842;2023-12-14T02:17:12;32.40;;;18.77;;
9884;SDS011;4981;50.966;4.842;2023-12-14T02:19:39;29.30;;;17.20;;
9884;SDS011;4981;50.966;4.842;2023-12-14T02:22:07;31.00;;;17.17;;
9884;SDS011;4981;50.966;4.842;2023-12-14T02:24:35;25.73;;;14.80;;
9884;SDS011;4981;50.966;4.842;2023-12-14T02:27:02;23.80;;;15.73;;
9884;SDS011;4981;50.966;4.842;2023-12-14T02:29:30;26.80;;;16.13;;
9884;SDS011;4981;50.966;4.842;2023-12-14T02:31:57;22.43;;;14.70;;
9884;SDS011;4981;50.966;4.842;2023-12-14T02:34:24;22.67;;;15.87;;
9884;SDS011;4981;50.966;4.842;2023-12-14T02:36:52;25.53;;;16.03;;
9884;SDS011;4981;50.966;4.842;2023-12-14T02:39:19;23.77;;;15.50;;
9884;SDS011;4981;50.966;4.842;2023-12-14T02:41:48;24.43;;;16.00;;
9884;SDS011;4981;50.966;4.842;2023-12-14T02:44:15;26.27;;;15.87;;
9884;SDS011;4981;50.966;4.842;2023-12-14T02:46:42;24.80;;;15.93;;
9884;SDS011;4981;50.966;4.842;2023-12-14T02:49:09;24.30;;;15.80;;
9884;SDS011;4981;50.966;4.842;2023-12-14T02:51:36;23.57;;;15.57;;
9884;SDS011;4981;50.966;4.842;2023-12-14T02:54:04;27.13;;;17.13;;
9884;SDS011;4981;50.966;4.842;2023-12-14T02:56:31;26.20;;;15.73;;
9884;SDS011;4981;50.966;4.842;2023-12-14T02:58:59;29.13;;;15.70;;
9884;SDS011;4981;50.966;4.842;2023-12-14T03:01:27;23.90;;;14.97;;
9884;SDS011;4981;50.966;4.842;2023-12-14T03:03:54;22.73;;;14.70;;
9884;SDS011;4981;50.966;4.842;2023-12-14T03:06:21;21.60;;;14.67;;
9884;SDS011;4981;50.966;4.842;2023-12-14T03:08:48;19.97;;;14.37;;
9884;SDS011;4981;50.966;4.842;2023-12-14T03:11:22;21.67;;;14.60;;
9884;SDS011;4981;50.966;4.842;2023-12-14T03:13:49;20.43;;;15.13;;
9884;SDS011;4981;50.966;4.842;2023-12-14T03:16:18;22.00;;;15.23;;
9884;SDS011;4981;50.966;4.842;2023-12-14T03:18:45;21.50;;;14.50;;
9884;SDS011;4981;50.966;4.842;2023-12-14T03:21:17;22.93;;;13.97;;
9884;SDS011;4981;50.966;4.842;2023-12-14T03:23:44;22.23;;;15.47;;
9884;SDS011;4981;50.966;4.842;2023-12-14T03:26:12;19.97;;;13.77;;
9884;SDS011;4981;50.966;4.842;2023-12-14T03:28:39;21.53;;;14.43;;
9884;SDS011;4981;50.966;4.842;2023-12-14T03:31:06;18.30;;;13.17;;
9884;SDS011;4981;50.966;4.842;2023-12-14T03:33:35;19.87;;;13.00;;
9884;SDS011;4981;50.966;4.842;2023-12-14T03:36:02;17.10;;;11.93;;
9884;SDS011;4981;50.966;4.842;2023-12-14T03:38:30;15.50;;;11.17;;
9884;SDS011;4981;50.966;4.842;2023-12-14T03:40:57;16.30;;;11.27;;
9884;SDS011;4981;50.966;4.842;2023-12-14T03:43:25;15.30;;;10.87;;
9884;SDS011;4981;50.966;4.842;2023-12-14T03:45:52;17.20;;;11.60;;
9884;SDS011;4981;50.966;4.842;2023-12-14T03:48:19;13.63;;;10.37;;
9884;SDS011;4981;50.966;4.842;2023-12-14T03:50:48;14.27;;;10.13;;
9884;SDS011;4981;50.966;4.842;2023-12-14T03:53:15;17.10;;;9.87;;
9884;SDS011;4981;50.966;4.842;2023-12-14T03:55:43;13.67;;;9.70;;
9884;SDS011;4981;50.966;4.842;2023-12-14T03:58:11;14.13;;;9.80;;
9884;SDS011;4981;50.966;4.842;2023-12-14T04:00:38;14.63;;;10.60;;
9884;SDS011;4981;50.966;4.842;2023-12-14T04:03:05;13.50;;;10.20;;
9884;SDS011;4981;50.966;4.842;2023-12-14T04:05:33;15.73;;;11.83;;
9884;SDS011;4981;50.966;4.842;2023-12-14T04:08:05;14.43;;;10.63;;
9884;SDS011;4981;50.966;4.842;2023-12-14T04:10:32;14.73;;;10.60;;
9884;SDS011;4981;50.966;4.842;2023-12-14T04:12:59;14.77;;;10.83;;
9884;SDS011;4981;50.966;4.842;2023-12-14T04:15:27;14.57;;;10.33;;
9884;SDS011;4981;50.966;4.842;2023-12-14T04:17:54;15.50;;;11.40;;
9884;SDS011;4981;50.966;4.842;2023-12-14T04:20:21;15.20;;;11.47;;
9884;SDS011;4981;50.966;4.842;2023-12-14T04:22:48;16.20;;;12.03;;
9884;SDS011;4981;50.966;4.842;2023-12-14T04:25:17;15.80;;;11.97;;
9884;SDS011;4981;50.966;4.842;2023-12-14T04:27:44;15.47;;;11.27;;
9884;SDS011;4981;50.966;4.842;2023-12-14T04:30:11;15.90;;;10.90;;
9884;SDS011;4981;50.966;4.842;2023-12-14T04:32:39;14.20;;;11.17;;
9884;SDS011;4981;50.966;4.842;2023-12-14T04:35:06;12.50;;;9.53;;
9884;SDS011;4981;50.966;4.842;2023-12-14T04:37:34;13.00;;;10.03;;
9884;SDS011;4981;50.966;4.842;2023-12-14T04:40:01;11.40;;;9.70;;
9884;SDS011;4981;50.966;4.842;2023-12-14T04:42:30;13.23;;;10.17;;
9884;SDS011;4981;50.966;4.842;2023-12-14T04:44:57;12.97;;;9.60;;
9884;SDS011;4981;50.966;4.842;2023-12-14T04:47:24;13.80;;;10.37;;
9884;SDS011;4981;50.966;4.842;2023-12-14T04:49:52;13.10;;;9.97;;
9884;SDS011;4981;50.966;4.842;2023-12-14T04:52:19;11.80;;;9.43;;
9884;SDS011;4981;50.966;4.842;2023-12-14T04:54:46;14.07;;;11.13;;
9884;SDS011;4981;50.966;4.842;2023-12-14T04:57:13;12.40;;;10.13;;
9884;SDS011;4981;50.966;4.842;2023-12-14T04:59:42;14.40;;;10.03;;
9884;SDS011;4981;50.966;4.842;2023-12-14T05:02:09;14.63;;;10.00;;
9884;SDS011;4981;50.966;4.842;2023-12-14T05:04:36;14.37;;;12.03;;
9884;SDS011;4981;50.966;4.842;2023-12-14T05:07:04;14.60;;;11.33;;
9884;SDS011;4981;50.966;4.842;2023-12-14T05:09:31;15.47;;;11.80;;
9884;SDS011;4981;50.966;4.842;2023-12-14T05:11:58;14.53;;;10.53;;
9884;SDS011;4981;50.966;4.842;2023-12-14T05:14:25;15.93;;;11.50;;
9884;SDS011;4981;50.966;4.842;2023-12-14T05:16:56;12.67;;;10.90;;
9884;SDS011;4981;50.966;4.842;2023-12-14T05:19:23;14.47;;;11.80;;
9884;SDS011;4981;50.966;4.842;2023-12-14T05:21:50;13.93;;;11.70;;
9884;SDS011;4981;50.966;4.842;2023-12-14T05:24:19;14.00;;;10.43;;
9884;SDS011;4981;50.966;4.842;2023-12-14T05:26:46;14.80;;;11.70;;
9884;SDS011;4981;50.966;4.842;2023-12-14T05:29:14;17.40;;;12.90;;
9884;SDS011;4981;50.966;4.842;2023-12-14T05:31:42;16.23;;;12.70;;
9884;SDS011;4981;50.966;4.842;2023-12-14T05:34:10;15.80;;;12.60;;
9884;SDS011;4981;50.966;4.842;2023-12-14T05:36:38;15.40;;;12.73;;
9884;SDS011;4981;50.966;4.842;2023-12-14T05:39:05;17.67;;;13.77;;
9884;SDS011;4981;50.966;4.842;2023-12-14T05:41:32;16.47;;;14.10;;
9884;SDS011;4981;50.966;4.842;2023-12-14T05:43:59;18.97;;;14.07;;
9884;SDS011;4981;50.966;4.842;2023-12-14T05:46:27;17.93;;;14.13;;
9884;SDS011;4981;50.966;4.842;2023-12-14T05:48:54;21.23;;;14.23;;
9884;SDS011;4981;50.966;4.842;2023-12-14T05:51:29;16.33;;;14.20;;
9884;SDS011;4981;50.966;4.842;2023-12-14T05:53:56;16.33;;;13.43;;
9884;SDS011;4981;50.966;4.842;2023-12-14T05:56:23;17.03;;;14.17;;
9884;SDS011;4981;50.966;4.842;2023-12-14T05:58:51;18.80;;;13.57;;
9884;SDS011;4981;50.966;4.842;2023-12-14T06:01:18;17.23;;;13.17;;
9884;SDS011;4981;50.966;4.842;2023-12-14T06:03:45;18.40;;;13.67;;
9884;SDS011;4981;50.966;4.842;2023-12-14T06:06:13;18.97;;;14.27;;
9884;SDS011;4981;50.966;4.842;2023-12-14T06:08:41;16.63;;;14.07;;
9884;SDS011;4981;50.966;4.842;2023-12-14T06:11:09;21.63;;;14.43;;
9884;SDS011;4981;50.966;4.842;2023-12-14T06:13:36;17.33;;;13.60;;
9884;SDS011;4981;50.966;4.842;2023-12-14T06:16:05;17.57;;;13.43;;
9884;SDS011;4981;50.966;4.842;2023-12-14T06:18:37;15.93;;;13.03;;
9884;SDS011;4981;50.966;4.842;2023-12-14T06:21:06;15.97;;;13.37;;
9884;SDS011;4981;50.966;4.842;2023-12-14T06:23:34;16.10;;;12.37;;
9884;SDS011;4981;50.966;4.842;2023-12-14T06:26:03;16.47;;;13.17;;
9884;SDS011;4981;50.966;4.842;2023-12-14T06:28:31;18.30;;;12.70;;
9884;SDS011;4981;50.966;4.842;2023-12-14T06:30:58;16.57;;;12.70;;
9884;SDS011;4981;50.966;4.842;2023-12-14T06:33:27;16.40;;;12.97;;
9884;SDS011;4981;50.966;4.842;2023-12-14T06:35:54;20.50;;;12.87;;
9884;SDS011;4981;50.966;4.842;2023-12-14T06:38:22;18.27;;;12.27;;
9884;SDS011;4981;50.966;4.842;2023-12-14T06:40:49;15.03;;;11.67;;
9884;SDS011;4981;50.966;4.842;2023-12-14T06:43:18;13.17;;;11.20;;
9884;SDS011;4981;50.966;4.842;2023-12-14T06:45:45;17.63;;;13.33;;
9884;SDS011;4981;50.966;4.842;2023-12-14T06:48:12;15.47;;;12.27;;
9884;SDS011;4981;50.966;4.842;2023-12-14T06:50:39;18.43;;;13.03;;
9884;SDS011;4981;50.966;4.842;2023-12-14T06:53:07;18.77;;;13.63;;
9884;SDS011;4981;50.966;4.842;2023-12-14T06:55:34;19.97;;;13.53;;
9884;SDS011;4981;50.966;4.842;2023-12-14T06:58:01;17.97;;;12.80;;
9884;SDS011;4981;50.966;4.842;2023-12-14T07:00:30;15.57;;;12.53;;
9884;SDS011;4981;50.966;4.842;2023-12-14T07:02:57;15.37;;;12.43;;
9884;SDS011;4981;50.966;4.842;2023-12-14T07:05:25;15.93;;;12.03;;
9884;SDS011;4981;50.966;4.842;2023-12-14T07:07:52;18.53;;;13.27;;
9884;SDS011;4981;50.966;4.842;2023-12-14T07:10:19;17.93;;;12.83;;
9884;SDS011;4981;50.966;4.842;2023-12-14T07:12:47;19.17;;;14.67;;
9884;SDS011;4981;50.966;4.842;2023-12-14T07:15:14;17.97;;;13.73;;
9884;SDS011;4981;50.966;4.842;2023-12-14T07:17:43;23.47;;;13.70;;
9884;SDS011;4981;50.966;4.842;2023-12-14T07:20:10;19.73;;;12.90;;
9884;SDS011;4981;50.966;4.842;2023-12-14T07:22:38;17.43;;;13.63;;
9884;SDS011;4981;50.966;4.842;2023-12-14T07:25:05;18.70;;;13.47;;
9884;SDS011;4981;50.966;4.842;2023-12-14T07:27:33;19.97;;;15.10;;
9884;SDS011;4981;50.966;4.842;2023-12-14T07:30:00;18.83;;;12.97;;
9884;SDS011;4981;50.966;4.842;2023-12-14T07:32:27;21.67;;;15.67;;
9884;SDS011;4981;50.966;4.842;2023-12-14T07:34:56;20.43;;;14.40;;
9884;SDS011;4981;50.966;4.842;2023-12-14T07:37:23;20.10;;;13.83;;
9884;SDS011;4981;50.966;4.842;2023-12-14T07:39:50;18.87;;;14.23;;
9884;SDS011;4981;50.966;4.842;2023-12-14T07:42:18;22.00;;;14.23;;
9884;SDS011;4981;50.966;4.842;2023-12-14T07:44:45;19.83;;;14.43;;
9884;SDS011;4981;50.966;4.842;2023-12-14T07:47:12;21.70;;;14.17;;
9884;SDS011;4981;50.966;4.842;2023-12-14T07:49:40;23.33;;;14.07;;
9884;SDS011;4981;50.966;4.842;2023-12-14T07:52:08;20.47;;;14.40;;
9884;SDS011;4981;50.966;4.842;2023-12-14T07:54:36;19.97;;;13.53;;
9884;SDS011;4981;50.966;4.842;2023-12-14T07:57:03;23.97;;;14.53;;
9884;SDS011;4981;50.966;4.842;2023-12-14T07:59:30;20.30;;;13.93;;
9884;SDS011;4981;50.966;4.842;2023-12-14T08:01:57;23.30;;;13.90;;
9884;SDS011;4981;50.966;4.842;2023-12-14T08:04:25;17.60;;;13.47;;
9884;SDS011;4981;50.966;4.842;2023-12-14T08:06:52;20.67;;;13.70;;
9884;SDS011;4981;50.966;4.842;2023-12-14T08:09:21;19.80;;;13.57;;
9884;SDS011;4981;50.966;4.842;2023-12-14T08:11:48;18.60;;;13.50;;
9884;SDS011;4981;50.966;4.842;2023-12-14T08:14:17;19.97;;;12.77;;
9884;SDS011;4981;50.966;4.842;2023-12-14T08:16:44;20.57;;;14.07;;
9884;SDS011;4981;50.966;4.842;2023-12-14T08:19:12;18.27;;;12.93;;
9884;SDS011;4981;50.966;4.842;2023-12-14T08:21:39;19.23;;;13.70;;
9884;SDS011;4981;50.966;4.842;2023-12-14T08:24:06;20.43;;;13.30;;
9884;SDS011;4981;50.966;4.842;2023-12-14T08:26:35;18.43;;;13.53;;
9884;SDS011;4981;50.966;4.842;2023-12-14T08:29:02;25.27;;;16.43;;
9884;SDS011;4981;50.966;4.842;2023-12-14T08:31:29;17.43;;;13.53;;
9884;SDS011;4981;50.966;4.842;2023-12-14T08:33:57;18.47;;;12.67;;
9884;SDS011;4981;50.966;4.842;2023-12-14T08:36:24;18.97;;;12.57;;
9884;SDS011;4981;50.966;4.842;2023-12-14T08:38:51;19.53;;;13.57;;
9884;SDS011;4981;50.966;4.842;2023-12-14T08:41:19;19.80;;;13.80;;
9884;SDS011;4981;50.966;4.842;2023-12-14T08:43:48;18.87;;;13.60;;
9884;SDS011;4981;50.966;4.842;2023-12-14T08:46:15;17.83;;;13.20;;
9884;SDS011;4981;50.966;4.842;2023-12-14T08:48:42;18.30;;;13.53;;
9884;SDS011;4981;50.966;4.842;2023-12-14T08:51:09;23.83;;;14.37;;
9884;SDS011;4981;50.966;4.842;2023-12-14T08:53:37;19.10;;;13.10;;
9884;SDS011;4981;50.966;4.842;2023-12-14T08:56:04;21.33;;;13.47;;
9884;SDS011;4981;50.966;4.842;2023-12-14T08:58:32;20.37;;;13.00;;
9884;SDS011;4981;50.966;4.842;2023-12-14T09:01:00;18.00;;;12.90;;
9884;SDS011;4981;50.966;4.842;2023-12-14T09:03:27;20.97;;;13.70;;
9884;SDS011;4981;50.966;4.842;2023-12-14T09:05:54;24.37;;;13.40;;
9884;SDS011;4981;50.966;4.842;2023-12-14T09:08:23;17.10;;;12.20;;
9884;SDS011;4981;50.966;4.842;2023-12-14T09:10:50;19.07;;;13.47;;
9884;SDS011;4981;50.966;4.842;2023-12-14T09:13:18;20.80;;;13.43;;
9884;SDS011;4981;50.966;4.842;2023-12-14T09:15:45;19.93;;;13.70;;
9884;SDS011;4981;50.966;4.842;2023-12-14T09:18:14;23.30;;;13.57;;
9884;SDS011;4981;50.966;4.842;2023-12-14T09:20:41;20.80;;;13.73;;
9884;SDS011;4981;50.966;4.842;2023-12-14T09:23:08;19.67;;;12.97;;
9884;SDS011;4981;50.966;4.842;2023-12-14T09:25:36;18.43;;;13.47;;
9884;SDS011;4981;50.966;4.842;2023-12-14T09:28:03;22.33;;;15.77;;
9884;SDS011;4981;50.966;4.842;2023-12-14T09:30:30;20.37;;;14.70;;
9884;SDS011;4981;50.966;4.842;2023-12-14T09:32:57;20.33;;;14.10;;
9884;SDS011;4981;50.966;4.842;2023-12-14T09:35:26;20.80;;;14.30;;
9884;SDS011;4981;50.966;4.842;2023-12-14T09:37:53;21.10;;;15.13;;
9884;SDS011;4981;50.966;4.842;2023-12-14T09:40:21;18.43;;;13.80;;
9884;SDS011;4981;50.966;4.842;2023-12-14T09:42:49;20.67;;;12.67;;
9884;SDS011;4981;50.966;4.842;2023-12-14T09:45:16;17.60;;;11.83;;
9884;SDS011;4981;50.966;4.842;2023-12-14T09:47:44;17.40;;;11.67;;
9884;SDS011;4981;50.966;4.842;2023-12-14T09:50:11;16.17;;;10.33;;
9884;SDS011;4981;50.966;4.842;2023-12-14T09:52:41;15.43;;;10.00;;
9884;SDS011;4981;50.966;4.842;2023-12-14T09:55:10;15.33;;;10.10;;
9884;SDS011;4981;50.966;4.842;2023-12-14T09:57:37;16.07;;;9.33;;
9884;SDS011;4981;50.966;4.842;2023-12-14T10:00:05;13.27;;;8.73;;
9884;SDS011;4981;50.966;4.842;2023-12-14T10:02:36;13.83;;;9.20;;
9884;SDS011;4981;50.966;4.842;2023-12-14T10:05:04;15.10;;;9.03;;
9884;SDS011;4981;50.966;4.842;2023-12-14T10:07:35;13.50;;;7.87;;
9884;SDS011;4981;50.966;4.842;2023-12-14T10:10:10;18.07;;;8.67;;
9884;SDS011;4981;50.966;4.842;2023-12-14T10:12:50;12.90;;;8.00;;
9884;SDS011;4981;50.966;4.842;2023-12-14T10:15:18;14.93;;;7.90;;
9884;SDS011;4981;50.966;4.842;2023-12-14T10:17:45;12.33;;;6.93;;
9884;SDS011;4981;50.966;4.842;2023-12-14T10:20:18;12.77;;;7.27;;
9884;SDS011;4981;50.966;4.842;2023-12-14T10:22:48;11.90;;;7.10;;
9884;SDS011;4981;50.966;4.842;2023-12-14T10:25:18;8.50;;;6.60;;
9884;SDS011;4981;50.966;4.842;2023-12-14T10:27:46;9.50;;;5.83;;
9884;SDS011;4981;50.966;4.842;2023-12-14T10:30:14;9.80;;;6.47;;
9884;SDS011;4981;50.966;4.842;2023-12-14T10:32:41;12.57;;;7.27;;
9884;SDS011;4981;50.966;4.842;2023-12-14T10:35:08;12.17;;;6.63;;
9884;SDS011;4981;50.966;4.842;2023-12-14T10:37:37;12.73;;;6.77;;
9884;SDS011;4981;50.966;4.842;2023-12-14T10:40:05;15.67;;;7.73;;
9884;SDS011;4981;50.966;4.842;2023-12-14T10:42:37;11.37;;;6.83;;
9884;SDS011;4981;50.966;4.842;2023-12-14T10:45:06;12.57;;;7.20;;
9884;SDS011;4981;50.966;4.842;2023-12-14T10:47:34;13.63;;;6.77;;
9884;SDS011;4981;50.966;4.842;2023-12-14T10:50:02;10.27;;;7.00;;
9884;SDS011;4981;50.966;4.842;2023-12-14T10:52:30;8.63;;;6.13;;
9884;SDS011;4981;50.966;4.842;2023-12-14T10:55:01;8.63;;;7.23;;
9884;SDS011;4981;50.966;4.842;2023-12-14T10:57:29;12.47;;;7.40;;
9884;SDS011;4981;50.966;4.842;2023-12-14T10:59:58;11.13;;;7.00;;
9884;SDS011;4981;50.966;4.842;2023-12-14T11:02:26;10.57;;;6.63;;
9884;SDS011;4981;50.966;4.842;2023-12-14T11:04:53;11.77;;;6.80;;
9884;SDS011;4981;50.966;4.842;2023-12-14T11:10:04;8.60;;;6.67;;
9884;SDS011;4981;50.966;4.842;2023-12-14T11:12:32;8.93;;;5.97;;
9884;SDS011;4981;50.966;4.842;2023-12-14T11:15:01;10.20;;;5.93;;
9884;SDS011;4981;50.966;4.842;2023-12-14T11:17:29;13.30;;;6.40;;
9884;SDS011;4981;50.966;4.842;2023-12-14T11:20:01;12.73;;;6.17;;
9884;SDS011;4981;50.966;4.842;2023-12-14T11:22:48;11.13;;;6.20;;
9884;SDS011;4981;50.966;4.842;2023-12-14T11:25:16;12.77;;;6.17;;
9884;SDS011;4981;50.966;4.842;2023-12-14T11:27:43;12.93;;;6.83;;
9884;SDS011;4981;50.966;4.842;2023-12-14T11:30:12;10.40;;;6.57;;
9884;SDS011;4981;50.966;4.842;2023-12-14T11:32:41;12.97;;;6.83;;
9884;SDS011;4981;50.966;4.842;2023-12-14T11:35:08;11.97;;;6.70;;
9884;SDS011;4981;50.966;4.842;2023-12-14T11:37:37;10.50;;;6.53;;
9884;SDS011;4981;50.966;4.842;2023-12-14T11:40:05;12.40;;;6.50;;
9884;SDS011;4981;50.966;4.842;2023-12-14T11:42:34;7.93;;;6.47;;
9884;SDS011;4981;50.966;4.842;2023-12-14T11:45:02;10.20;;;6.80;;
9884;SDS011;4981;50.966;4.842;2023-12-14T11:47:30;11.77;;;6.73;;
9884;SDS011;4981;50.966;4.842;2023-12-14T11:49:58;11.67;;;6.37;;
9884;SDS011;4981;50.966;4.842;2023-12-14T11:52:25;11.00;;;6.90;;
9884;SDS011;4981;50.966;4.842;2023-12-14T11:54:54;13.67;;;7.27;;
9884;SDS011;4981;50.966;4.842;2023-12-14T11:57:21;15.60;;;7.30;;
9884;SDS011;4981;50.966;4.842;2023-12-14T11:59:50;11.07;;;6.37;;
9884;SDS011;4981;50.966;4.842;2023-12-14T12:02:22;11.87;;;6.57;;
9884;SDS011;4981;50.966;4.842;2023-12-14T12:04:52;11.00;;;6.87;;
9884;SDS011;4981;50.966;4.842;2023-12-14T12:07:19;10.37;;;7.57;;
9884;SDS011;4981;50.966;4.842;2023-12-14T12:09:47;14.57;;;7.13;;
9884;SDS011;4981;50.966;4.842;2023-12-14T12:12:14;9.43;;;6.60;;
9884;SDS011;4981;50.966;4.842;2023-12-14T12:14:41;15.30;;;7.43;;
9884;SDS011;4981;50.966;4.842;2023-12-14T12:17:09;10.53;;;7.17;;
9884;SDS011;4981;50.966;4.842;2023-12-14T12:19:36;16.43;;;7.17;;
9884;SDS011;4981;50.966;4.842;2023-12-14T12:22:05;11.57;;;7.00;;
9884;SDS011;4981;50.966;4.842;2023-12-14T12:24:32;12.30;;;7.33;;
9884;SDS011;4981;50.966;4.842;2023-12-14T12:27:00;13.37;;;7.63;;
9884;SDS011;4981;50.966;4.842;2023-12-14T12:29:27;13.33;;;8.30;;
9884;SDS011;4981;50.966;4.842;2023-12-14T12:31:54;10.23;;;7.80;;
9884;SDS011;4981;50.966;4.842;2023-12-14T12:34:21;15.10;;;8.03;;
9884;SDS011;4981;50.966;4.842;2023-12-14T12:36:49;15.90;;;9.17;;
9884;SDS011;4981;50.966;4.842;2023-12-14T12:39:17;14.53;;;8.37;;
9884;SDS011;4981;50.966;4.842;2023-12-14T12:41:45;13.43;;;9.23;;
9884;SDS011;4981;50.966;4.842;2023-12-14T12:44:12;17.23;;;9.20;;
9884;SDS011;4981;50.966;4.842;2023-12-14T12:46:40;15.10;;;7.73;;
9884;SDS011;4981;50.966;4.842;2023-12-14T12:49:07;11.80;;;8.27;;
9884;SDS011;4981;50.966;4.842;2023-12-14T12:51:35;16.67;;;8.33;;
9884;SDS011;4981;50.966;4.842;2023-12-14T12:54:02;13.03;;;8.17;;
9884;SDS011;4981;50.966;4.842;2023-12-14T12:56:31;13.27;;;7.90;;
9884;SDS011;4981;50.966;4.842;2023-12-14T12:58:59;14.73;;;7.47;;
9884;SDS011;4981;50.966;4.842;2023-12-14T13:01:26;11.97;;;7.83;;
9884;SDS011;4981;50.966;4.842;2023-12-14T13:03:53;14.00;;;7.60;;
9884;SDS011;4981;50.966;4.842;2023-12-14T13:06:22;13.97;;;7.03;;
9884;SDS011;4981;50.966;4.842;2023-12-14T13:08:50;12.70;;;7.13;;
9884;SDS011;4981;50.966;4.842;2023-12-14T13:11:17;12.23;;;6.97;;
9884;SDS011;4981;50.966;4.842;2023-12-14T13:13:46;14.00;;;6.63;;
9884;SDS011;4981;50.966;4.842;2023-12-14T13:16:14;9.93;;;5.53;;
9884;SDS011;4981;50.966;4.842;2023-12-14T13:18:42;12.40;;;6.47;;
9884;SDS011;4981;50.966;4.842;2023-12-14T13:21:11;11.33;;;6.03;;
9884;SDS011;4981;50.966;4.842;2023-12-14T13:23:38;9.70;;;5.67;;
9884;SDS011;4981;50.966;4.842;2023-12-14T13:26:05;11.90;;;5.60;;
9884;SDS011;4981;50.966;4.842;2023-12-14T13:28:32;8.07;;;4.77;;
9884;SDS011;4981;50.966;4.842;2023-12-14T13:31:01;13.80;;;5.47;;
9884;SDS011;4981;50.966;4.842;2023-12-14T13:33:28;12.97;;;5.30;;
9884;SDS011;4981;50.966;4.842;2023-12-14T13:35:56;10.33;;;5.53;;
9884;SDS011;4981;50.966;4.842;2023-12-14T13:38:23;9.73;;;4.93;;
9884;SDS011;4981;50.966;4.842;2023-12-14T13:40:50;11.47;;;5.90;;
9884;SDS011;4981;50.966;4.842;2023-12-14T13:43:18;17.67;;;5.77;;
9884;SDS011;4981;50.966;4.842;2023-12-14T13:45:45;11.47;;;6.13;;
9884;SDS011;4981;50.966;4.842;2023-12-14T13:48:14;10.63;;;5.10;;
9884;SDS011;4981;50.966;4.842;2023-12-14T13:50:41;12.13;;;5.70;;
9884;SDS011;4981;50.966;4.842;2023-12-14T13:53:10;8.03;;;4.60;;
9884;SDS011;4981;50.966;4.842;2023-12-14T13:55:37;10.97;;;5.90;;
9884;SDS011;4981;50.966;4.842;2023-12-14T13:58:04;8.53;;;5.67;;
9884;SDS011;4981;50.966;4.842;2023-12-14T14:00:32;9.93;;;5.40;;
9884;SDS011;4981;50.966;4.842;2023-12-14T14:02:59;13.23;;;5.50;;
9884;SDS011;4981;50.966;4.842;2023-12-14T14:05:30;13.80;;;5.80;;
9884;SDS011;4981;50.966;4.842;2023-12-14T14:07:57;10.93;;;5.53;;
9884;SDS011;4981;50.966;4.842;2023-12-14T14:10:24;12.00;;;5.90;;
9884;SDS011;4981;50.966;4.842;2023-12-14T14:12:51;11.93;;;5.77;;
9884;SDS011;4981;50.966;4.842;2023-12-14T14:15:19;10.90;;;6.03;;
9884;SDS011;4981;50.966;4.842;2023-12-14T14:17:46;10.80;;;6.70;;
9884;SDS011;4981;50.966;4.842;2023-12-14T14:20:17;11.67;;;6.10;;
9884;SDS011;4981;50.966;4.842;2023-12-14T14:22:46;16.67;;;7.10;;
9884;SDS011;4981;50.966;4.842;2023-12-14T14:25:13;10.33;;;5.93;;
9884;SDS011;4981;50.966;4.842;2023-12-14T14:27:40;11.90;;;6.80;;
9884;SDS011;4981;50.966;4.842;2023-12-14T14:30:08;11.23;;;6.23;;
9884;SDS011;4981;50.966;4.842;2023-12-14T14:32:35;14.57;;;6.80;;
9884;SDS011;4981;50.966;4.842;2023-12-14T14:35:03;12.87;;;6.27;;
9884;SDS011;4981;50.966;4.842;2023-12-14T14:37:31;11.20;;;6.27;;
9884;SDS011;4981;50.966;4.842;2023-12-14T14:40:00;12.57;;;6.00;;
9884;SDS011;4981;50.966;4.842;2023-12-14T14:42:27;14.60;;;7.13;;
9884;SDS011;4981;50.966;4.842;2023-12-14T14:44:55;10.97;;;6.47;;
9884;SDS011;4981;50.966;4.842;2023-12-14T14:47:22;11.97;;;6.77;;
9884;SDS011;4981;50.966;4.842;2023-12-14T14:49:50;18.17;;;6.47;;
9884;SDS011;4981;50.966;4.842;2023-12-14T14:52:21;14.60;;;6.90;;
9884;SDS011;4981;50.966;4.842;2023-12-14T14:54:49;12.70;;;6.47;;
9884;SDS011;4981;50.966;4.842;2023-12-14T14:57:18;11.80;;;6.50;;
9884;SDS011;4981;50.966;4.842;2023-12-14T14:59:45;12.60;;;7.00;;